sensor_id;sensor_type;location;lat;lon;timestamp;pressure;altitude;pressure_sealevel;temperature;humidity
45327;BME280;31062;49.678;24.560;2024-01-30T00:00:50;100360.53;;;-0.27;82.82
45327;BME280;31062;49.678;24.560;2024-01-30T00:03:36;100362.06;;;-0.26;83.11
45327;BME280;31062;49.678;24.560;2024-01-30T00:06:22;100372.66;;;-0.28;82.44
45327;BME280;31062;49.678;24.560;2024-01-30T00:09:08;100368.88;;;-0.31;82.11
45327;BME280;31062;49.678;24.560;2024-01-30T00:11:54;100368.72;;;-0.36;82.65
45327;BME280;31062;49.678;24.560;2024-01-30T00:14:42;100368.72;;;-0.36;83.04
45327;BME280;31062;49.678;24.560;2024-01-30T00:17:47;100343.66;;;-0.53;82.61
45327;BME280;31062;49.678;24.560;2024-01-30T00:20:53;100371.13;;;-0.38;82.64
45327;BME280;31062;49.678;24.560;2024-01-30T00:23:59;100370.34;;;-0.39;83.30
45327;BME280;31062;49.678;24.560;2024-01-30T00:26:45;100364.91;;;-0.39;82.88
45327;BME280;31062;49.678;24.560;2024-01-30T00:29:30;100357.44;;;-0.48;82.60
45327;BME280;31062;49.678;24.560;2024-01-30T00:32:20;100368.06;;;-0.41;82.88
45327;BME280;31062;49.678;24.560;2024-01-30T00:35:06;100364.13;;;-0.39;82.75
45327;BME280;31062;49.678;24.560;2024-01-30T00:37:52;100369.59;;;-0.39;83.06
45327;BME280;31062;49.678;24.560;2024-01-30T00:40:38;100354.75;;;-0.38;83.31
45327;BME280;31062;49.678;24.560;2024-01-30T00:43:24;100359.44;;;-0.39;83.35
45327;BME280;31062;49.678;24.560;2024-01-30T00:46:13;100355.97;;;-0.39;82.41
45327;BME280;31062;49.678;24.560;2024-01-30T00:48:59;100344.75;;;-0.42;82.61
45327;BME280;31062;49.678;24.560;2024-01-30T00:51:46;100350.53;;;-0.39;83.24
45327;BME280;31062;49.678;24.560;2024-01-30T00:54:31;100350.19;;;-0.42;82.79
45327;BME280;31062;49.678;24.560;2024-01-30T00:57:34;100350.19;;;-0.42;83.23
45327;BME280;31062;49.678;24.560;2024-01-30T01:00:20;100277.72;;;-0.88;82.86
45327;BME280;31062;49.678;24.560;2024-01-30T01:03:06;100320.97;;;-0.50;83.02
45327;BME280;31062;49.678;24.560;2024-01-30T01:06:00;100337.66;;;-0.39;82.78
45327;BME280;31062;49.678;24.560;2024-01-30T01:08:46;100335.38;;;-0.41;82.66
45327;BME280;31062;49.678;24.560;2024-01-30T01:11:32;100329.75;;;-0.46;82.34
45327;BME280;31062;49.678;24.560;2024-01-30T01:14:18;100333.41;;;-0.40;83.11
45327;BME280;31062;49.678;24.560;2024-01-30T01:17:23;100340.81;;;-0.41;82.84
45327;BME280;31062;49.678;24.560;2024-01-30T01:20:30;100338.25;;;-0.44;82.54
45327;BME280;31062;49.678;24.560;2024-01-30T01:23:16;100328.56;;;-0.45;82.53
45327;BME280;31062;49.678;24.560;2024-01-30T01:26:02;100285.00;;;-0.76;82.75
45327;BME280;31062;49.678;24.560;2024-01-30T01:28:48;100332.34;;;-0.43;81.97
45327;BME280;31062;49.678;24.560;2024-01-30T01:31:54;100332.47;;;-0.46;82.43
45327;BME280;31062;49.678;24.560;2024-01-30T01:35:02;100324.75;;;-0.48;82.29
45327;BME280;31062;49.678;24.560;2024-01-30T01:37:49;100335.66;;;-0.48;82.02
45327;BME280;31062;49.678;24.560;2024-01-30T01:40:40;100326.28;;;-0.47;82.21
45327;BME280;31062;49.678;24.560;2024-01-30T01:43:26;100327.78;;;-0.46;82.66
45327;BME280;31062;49.678;24.560;2024-01-30T01:46:13;100332.78;;;-0.44;82.62
45327;BME280;31062;49.678;24.560;2024-01-30T01:49:19;100319.94;;;-0.44;82.87
45327;BME280;31062;49.678;24.560;2024-01-30T01:52:06;100326.91;;;-0.43;82.36
45327;BME280;31062;49.678;24.560;2024-01-30T01:55:07;100323.88;;;-0.45;82.77
45327;BME280;31062;49.678;24.560;2024-01-30T01:57:56;100313.84;;;-0.48;82.54
45327;BME280;31062;49.678;24.560;2024-01-30T02:01:04;100319.28;;;-0.48;82.66
45327;BME280;31062;49.678;24.560;2024-01-30T02:04:11;100309.91;;;-0.47;82.42
45327;BME280;31062;49.678;24.560;2024-01-30T02:06:56;100304.78;;;-0.45;83.45
45327;BME280;31062;49.678;24.560;2024-01-30T02:09:43;100306.00;;;-0.46;82.54
45327;BME280;31062;49.678;24.560;2024-01-30T02:12:34;100288.72;;;-0.61;83.02
45327;BME280;31062;49.678;24.560;2024-01-30T02:15:19;100305.50;;;-0.53;82.84
45327;BME280;31062;49.678;24.560;2024-01-30T02:18:05;100306.28;;;-0.53;82.87
45327;BME280;31062;49.678;24.560;2024-01-30T02:20:53;100293.56;;;-0.56;83.59
45327;BME280;31062;49.678;24.560;2024-01-30T02:23:40;100303.38;;;-0.58;83.11
45327;BME280;31062;49.678;24.560;2024-01-30T02:26:28;100303.53;;;-0.62;83.68
45327;BME280;31062;49.678;24.560;2024-01-30T02:29:33;100297.75;;;-0.64;83.40
45327;BME280;31062;49.678;24.560;2024-01-30T02:32:29;100298.97;;;-0.65;83.06
45327;BME280;31062;49.678;24.560;2024-01-30T02:35:15;100303.81;;;-0.69;83.29
45327;BME280;31062;49.678;24.560;2024-01-30T02:38:02;100298.03;;;-0.71;83.99
45327;BME280;31062;49.678;24.560;2024-01-30T02:40:50;100299.72;;;-0.73;83.39
45327;BME280;31062;49.678;24.560;2024-01-30T02:43:36;100291.97;;;-0.84;83.84
45327;BME280;31062;49.678;24.560;2024-01-30T02:46:21;100299.06;;;-0.77;84.28
45327;BME280;31062;49.678;24.560;2024-01-30T02:49:07;100275.56;;;-0.93;84.01
45327;BME280;31062;49.678;24.560;2024-01-30T02:51:53;100288.47;;;-0.85;83.59
45327;BME280;31062;49.678;24.560;2024-01-30T02:54:39;100287.41;;;-0.87;84.40
45327;BME280;31062;49.678;24.560;2024-01-30T02:57:25;100284.34;;;-0.89;84.18
45327;BME280;31062;49.678;24.560;2024-01-30T03:00:11;100281.34;;;-0.91;84.56
45327;BME280;31062;49.678;24.560;2024-01-30T03:02:58;100282.97;;;-0.94;84.90
45327;BME280;31062;49.678;24.560;2024-01-30T03:05:44;100286.91;;;-0.95;84.43
45327;BME280;31062;49.678;24.560;2024-01-30T03:08:30;100288.88;;;-0.95;85.03
45327;BME280;31062;49.678;24.560;2024-01-30T03:11:16;100290.09;;;-0.96;84.61
45327;BME280;31062;49.678;24.560;2024-01-30T03:14:01;100297.03;;;-0.95;84.42
45327;BME280;31062;49.678;24.560;2024-01-30T03:16:47;100283.13;;;-0.97;84.57
45327;BME280;31062;49.678;24.560;2024-01-30T03:19:33;100296.31;;;-0.96;84.81
45327;BME280;31062;49.678;24.560;2024-01-30T03:22:20;100279.97;;;-0.96;84.53
45327;BME280;31062;49.678;24.560;2024-01-30T03:25:06;100283.75;;;-0.93;84.85
45327;BME280;31062;49.678;24.560;2024-01-30T03:27:51;100285.28;;;-0.92;85.00
45327;BME280;31062;49.678;24.560;2024-01-30T03:30:38;100287.84;;;-0.89;85.40
45327;BME280;31062;49.678;24.560;2024-01-30T03:33:44;100285.00;;;-0.85;84.60
45327;BME280;31062;49.678;24.560;2024-01-30T03:36:50;100279.84;;;-0.83;84.65
45327;BME280;31062;49.678;24.560;2024-01-30T03:39:55;100282.44;;;-0.79;84.74
45327;BME280;31062;49.678;24.560;2024-01-30T03:43:01;100283.97;;;-0.78;85.04
45327;BME280;31062;49.678;24.560;2024-01-30T03:45:50;100287.75;;;-0.76;84.50
45327;BME280;31062;49.678;24.560;2024-01-30T03:48:56;100281.41;;;-0.73;85.02
45327;BME280;31062;49.678;24.560;2024-01-30T03:52:02;100278.97;;;-0.71;85.21
45327;BME280;31062;49.678;24.560;2024-01-30T03:55:04;100282.94;;;-0.72;84.73
45327;BME280;31062;49.678;24.560;2024-01-30T03:57:51;100276.84;;;-0.76;84.23
45327;BME280;31062;49.678;24.560;2024-01-30T04:00:56;100275.63;;;-0.84;84.45
45327;BME280;31062;49.678;24.560;2024-01-30T04:04:02;100268.94;;;-0.92;84.15
45327;BME280;31062;49.678;24.560;2024-01-30T04:07:10;100257.44;;;-0.96;84.17
45327;BME280;31062;49.678;24.560;2024-01-30T04:10:13;100261.97;;;-0.93;84.50
45327;BME280;31062;49.678;24.560;2024-01-30T04:13:00;100259.84;;;-0.98;84.70
45327;BME280;31062;49.678;24.560;2024-01-30T04:16:06;100269.97;;;-0.99;84.53
45327;BME280;31062;49.678;24.560;2024-01-30T04:19:12;100272.25;;;-0.97;85.05
45327;BME280;31062;49.678;24.560;2024-01-30T04:22:17;100276.16;;;-0.98;85.38
45327;BME280;31062;49.678;24.560;2024-01-30T04:25:03;100271.91;;;-1.08;85.27
45327;BME280;31062;49.678;24.560;2024-01-30T04:27:49;100288.84;;;-1.04;85.14
45327;BME280;31062;49.678;24.560;2024-01-30T04:30:35;100282.31;;;-1.07;85.22
45327;BME280;31062;49.678;24.560;2024-01-30T04:33:41;100288.84;;;-1.04;85.48
45327;BME280;31062;49.678;24.560;2024-01-30T04:36:26;100277.94;;;-1.04;85.45
45327;BME280;31062;49.678;24.560;2024-01-30T04:39:35;100283.72;;;-1.02;85.22
45327;BME280;31062;49.678;24.560;2024-01-30T04:42:21;100278.56;;;-1.00;85.85
45327;BME280;31062;49.678;24.560;2024-01-30T04:45:07;100281.28;;;-1.00;85.71
45327;BME280;31062;49.678;24.560;2024-01-30T04:48:13;100277.38;;;-0.99;85.19
45327;BME280;31062;49.678;24.560;2024-01-30T04:51:00;100270.41;;;-1.00;85.29
45327;BME280;31062;49.678;24.560;2024-01-30T04:54:06;100269.78;;;-1.04;85.40
45327;BME280;31062;49.678;24.560;2024-01-30T04:56:52;100273.09;;;-1.09;85.33
45327;BME280;31062;49.678;24.560;2024-01-30T04:59:37;100272.78;;;-1.11;85.22
45327;BME280;31062;49.678;24.560;2024-01-30T05:02:26;100267.03;;;-1.13;85.76
45327;BME280;31062;49.678;24.560;2024-01-30T05:05:14;100268.53;;;-1.12;85.75
45327;BME280;31062;49.678;24.560;2024-01-30T05:08:20;100272.00;;;-1.12;86.16
45327;BME280;31062;49.678;24.560;2024-01-30T05:11:26;100262.66;;;-1.11;85.71
45327;BME280;31062;49.678;24.560;2024-01-30T05:14:31;100272.66;;;-1.08;86.15
45327;BME280;31062;49.678;24.560;2024-01-30T05:17:38;100277.94;;;-1.04;85.28
45327;BME280;31062;49.678;24.560;2024-01-30T05:20:24;100263.75;;;-0.99;85.48
45327;BME280;31062;49.678;24.560;2024-01-30T05:23:13;100267.09;;;-0.95;85.34
45327;BME280;31062;49.678;24.560;2024-01-30T05:25:59;100262.88;;;-0.96;85.30
45327;BME280;31062;49.678;24.560;2024-01-30T05:28:46;100262.88;;;-0.96;85.58
45327;BME280;31062;49.678;24.560;2024-01-30T05:31:34;100261.34;;;-0.97;85.89
45327;BME280;31062;49.678;24.560;2024-01-30T05:34:39;100264.97;;;-1.00;85.52
45327;BME280;31062;49.678;24.560;2024-01-30T05:37:45;100255.41;;;-1.05;85.42
45327;BME280;31062;49.678;24.560;2024-01-30T05:40:51;100259.47;;;-1.09;85.12
45327;BME280;31062;49.678;24.560;2024-01-30T05:43:56;100269.75;;;-1.13;85.61
45327;BME280;31062;49.678;24.560;2024-01-30T05:47:04;100257.47;;;-1.18;85.75
45327;BME280;31062;49.678;24.560;2024-01-30T05:50:10;100253.06;;;-1.25;85.77
45327;BME280;31062;49.678;24.560;2024-01-30T05:52:57;100266.38;;;-1.27;85.09
45327;BME280;31062;49.678;24.560;2024-01-30T05:55:42;100257.56;;;-1.31;85.63
45327;BME280;31062;49.678;24.560;2024-01-30T05:58:28;100265.72;;;-1.31;86.39
45327;BME280;31062;49.678;24.560;2024-01-30T06:01:34;100263.00;;;-1.31;85.63
45327;BME280;31062;49.678;24.560;2024-01-30T06:04:20;100271.91;;;-1.30;85.90
45327;BME280;31062;49.678;24.560;2024-01-30T06:07:06;100268.16;;;-1.33;86.01
45327;BME280;31062;49.678;24.560;2024-01-30T06:09:53;100270.53;;;-1.35;85.26
45327;BME280;31062;49.678;24.560;2024-01-30T06:12:39;100270.97;;;-1.36;85.65
45327;BME280;31062;49.678;24.560;2024-01-30T06:15:25;100272.94;;;-1.37;86.04
45327;BME280;31062;49.678;24.560;2024-01-30T06:18:31;100275.38;;;-1.39;85.64
45327;BME280;31062;49.678;24.560;2024-01-30T06:21:18;100278.53;;;-1.40;86.28
45327;BME280;31062;49.678;24.560;2024-01-30T06:24:04;100273.09;;;-1.40;86.68
45327;BME280;31062;49.678;24.560;2024-01-30T06:26:50;100287.13;;;-1.42;85.48
45327;BME280;31062;49.678;24.560;2024-01-30T06:29:36;100273.34;;;-1.47;86.17
45327;BME280;31062;49.678;24.560;2024-01-30T06:32:21;100281.81;;;-1.45;85.25
45327;BME280;31062;49.678;24.560;2024-01-30T06:35:07;100276.50;;;-1.49;85.28
45327;BME280;31062;49.678;24.560;2024-01-30T06:38:13;100282.69;;;-1.48;86.52
45327;BME280;31062;49.678;24.560;2024-01-30T06:41:18;100284.97;;;-1.47;85.52
45327;BME280;31062;49.678;24.560;2024-01-30T06:44:24;100277.75;;;-1.41;86.93
45327;BME280;31062;49.678;24.560;2024-01-30T06:47:10;100285.50;;;-1.39;85.66
45327;BME280;31062;49.678;24.560;2024-01-30T06:49:57;100274.59;;;-1.39;86.31
45327;BME280;31062;49.678;24.560;2024-01-30T06:52:43;100276.91;;;-1.38;85.92
45327;BME280;31062;49.678;24.560;2024-01-30T06:55:29;100287.78;;;-1.38;85.65
45327;BME280;31062;49.678;24.560;2024-01-30T06:58:14;100272.94;;;-1.37;85.27
45327;BME280;31062;49.678;24.560;2024-01-30T07:01:20;100258.69;;;-1.50;85.93
45327;BME280;31062;49.678;24.560;2024-01-30T07:04:26;100272.31;;;-1.41;85.69
45327;BME280;31062;49.678;24.560;2024-01-30T07:07:12;100276.56;;;-1.40;85.65
45327;BME280;31062;49.678;24.560;2024-01-30T07:10:00;100274.72;;;-1.43;85.60
45327;BME280;31062;49.678;24.560;2024-01-30T07:13:06;100271.72;;;-1.45;84.92
45327;BME280;31062;49.678;24.560;2024-01-30T07:15:52;100274.88;;;-1.46;85.41
45327;BME280;31062;49.678;24.560;2024-01-30T07:18:58;100275.78;;;-1.49;85.24
45327;BME280;31062;49.678;24.560;2024-01-30T07:22:03;100277.41;;;-1.52;85.55
45327;BME280;31062;49.678;24.560;2024-01-30T07:24:54;100279.78;;;-1.54;85.86
45327;BME280;31062;49.678;24.560;2024-01-30T07:27:40;100271.34;;;-1.56;85.36
45327;BME280;31062;49.678;24.560;2024-01-30T07:30:26;100277.66;;;-1.59;85.88
45327;BME280;31062;49.678;24.560;2024-01-30T07:33:32;100276.13;;;-1.60;86.08
45327;BME280;31062;49.678;24.560;2024-01-30T07:36:37;100274.63;;;-1.61;85.97
45327;BME280;31062;49.678;24.560;2024-01-30T07:39:24;100272.22;;;-1.59;86.77
45327;BME280;31062;49.678;24.560;2024-01-30T07:42:10;100269.81;;;-1.57;86.95
45327;BME280;31062;49.678;24.560;2024-01-30T07:44:55;100272.84;;;-1.55;86.32
45327;BME280;31062;49.678;24.560;2024-01-30T07:47:42;100274.34;;;-1.54;86.28
45327;BME280;31062;49.678;24.560;2024-01-30T07:50:28;100270.44;;;-1.53;86.25
45327;BME280;31062;49.678;24.560;2024-01-30T07:53:14;100268.81;;;-1.50;86.56
45327;BME280;31062;49.678;24.560;2024-01-30T07:56:00;100268.34;;;-1.49;86.76
45327;BME280;31062;49.678;24.560;2024-01-30T07:58:46;100266.84;;;-1.50;86.32
45327;BME280;31062;49.678;24.560;2024-01-30T08:01:51;100260.19;;;-1.49;86.34
45327;BME280;31062;49.678;24.560;2024-01-30T08:04:37;100221.63;;;-1.78;86.12
45327;BME280;31062;49.678;24.560;2024-01-30T08:07:43;100260.19;;;-1.49;86.66
45327;BME280;31062;49.678;24.560;2024-01-30T08:10:31;100267.13;;;-1.48;86.20
45327;BME280;31062;49.678;24.560;2024-01-30T08:13:37;100264.75;;;-1.46;86.20
45327;BME280;31062;49.678;24.560;2024-01-30T08:16:42;100255.38;;;-1.45;86.40
45327;BME280;31062;49.678;24.560;2024-01-30T08:19:48;100245.09;;;-1.50;86.19
45327;BME280;31062;49.678;24.560;2024-01-30T08:22:54;100255.25;;;-1.41;85.98
45327;BME280;31062;49.678;24.560;2024-01-30T08:25:40;100259.03;;;-1.39;85.75
45327;BME280;31062;49.678;24.560;2024-01-30T08:28:25;100256.75;;;-1.40;85.90
45327;BME280;31062;49.678;24.560;2024-01-30T08:31:12;100250.88;;;-1.39;85.41
45327;BME280;31062;49.678;24.560;2024-01-30T08:33:58;100248.47;;;-1.37;85.80
45327;BME280;31062;49.678;24.560;2024-01-30T08:37:04;100238.63;;;-1.43;85.86
45327;BME280;31062;49.678;24.560;2024-01-30T08:40:10;100248.78;;;-1.35;86.03
45327;BME280;31062;49.678;24.560;2024-01-30T08:42:56;100245.72;;;-1.37;85.50
45327;BME280;31062;49.678;24.560;2024-01-30T08:45:41;100244.25;;;-1.38;85.42
45327;BME280;31062;49.678;24.560;2024-01-30T08:48:47;100242.91;;;-1.33;86.32
45327;BME280;31062;49.678;24.560;2024-01-30T08:51:33;100253.19;;;-1.28;85.49
45327;BME280;31062;49.678;24.560;2024-01-30T08:54:39;100257.63;;;-1.21;86.03
45327;BME280;31062;49.678;24.560;2024-01-30T08:57:25;100257.34;;;-1.14;86.23
45327;BME280;31062;49.678;24.560;2024-01-30T09:00:14;100263.41;;;-1.10;86.20
45327;BME280;31062;49.678;24.560;2024-01-30T09:03:00;100245.53;;;-1.20;85.38
45327;BME280;31062;49.678;24.560;2024-01-30T09:05:46;100261.59;;;-1.13;85.10
45327;BME280;31062;49.678;24.560;2024-01-30T09:08:33;100264.31;;;-1.13;86.19
45327;BME280;31062;49.678;24.560;2024-01-30T09:11:39;100261.59;;;-1.13;85.28
45327;BME280;31062;49.678;24.560;2024-01-30T09:14:24;100250.81;;;-1.17;86.09
45327;BME280;31062;49.678;24.560;2024-01-30T09:17:10;100248.28;;;-1.11;85.82
45327;BME280;31062;49.678;24.560;2024-01-30T09:20:18;100252.84;;;-1.08;85.60
45327;BME280;31062;49.678;24.560;2024-01-30T09:23:07;100205.25;;;-1.35;85.86
45327;BME280;31062;49.678;24.560;2024-01-30T09:25:54;100243.00;;;-1.06;85.89
45327;BME280;31062;49.678;24.560;2024-01-30T09:28:40;100239.69;;;-1.01;86.08
45327;BME280;31062;49.678;24.560;2024-01-30T09:31:45;100253.19;;;-0.97;85.33
45327;BME280;31062;49.678;24.560;2024-01-30T09:34:33;100251.69;;;-0.89;85.99
45327;BME280;31062;49.678;24.560;2024-01-30T09:37:20;100242.03;;;-0.81;85.69
45327;BME280;31062;49.678;24.560;2024-01-30T09:40:09;100242.97;;;-0.75;85.56
45327;BME280;31062;49.678;24.560;2024-01-30T09:42:56;100240.56;;;-0.73;85.36
45327;BME280;31062;49.678;24.560;2024-01-30T09:45:44;100238.44;;;-0.69;84.83
45327;BME280;31062;49.678;24.560;2024-01-30T09:48:52;100228.16;;;-0.65;84.70
45327;BME280;31062;49.678;24.560;2024-01-30T09:51:38;100225.75;;;-0.63;84.70
45327;BME280;31062;49.678;24.560;2024-01-30T09:54:45;100216.81;;;-0.72;84.38
45327;BME280;31062;49.678;24.560;2024-01-30T09:57:51;100222.41;;;-0.67;83.75
45327;BME280;31062;49.678;24.560;2024-01-30T10:00:36;100226.03;;;-0.70;84.80
45327;BME280;31062;49.678;24.560;2024-01-30T10:03:44;100224.50;;;-0.71;84.58
45327;BME280;31062;49.678;24.560;2024-01-30T10:06:51;100183.75;;;-1.02;84.50
45327;BME280;31062;49.678;24.560;2024-01-30T10:09:59;100216.66;;;-0.69;84.59
45327;BME280;31062;49.678;24.560;2024-01-30T10:13:05;100211.50;;;-0.67;84.29
45327;BME280;31062;49.678;24.560;2024-01-30T10:16:14;100205.75;;;-0.69;84.70
45327;BME280;31062;49.678;24.560;2024-01-30T10:19:19;100208.94;;;-0.52;85.16
45327;BME280;31062;49.678;24.560;2024-01-30T10:22:25;100166.25;;;-0.73;84.53
45327;BME280;31062;49.678;24.560;2024-01-30T10:25:31;100189.28;;;-0.47;84.59
45327;BME280;31062;49.678;24.560;2024-01-30T10:28:18;100207.31;;;-0.31;83.82
45327;BME280;31062;49.678;24.560;2024-01-30T10:31:03;100197.63;;;-0.32;84.40
45327;BME280;31062;49.678;24.560;2024-01-30T10:33:51;100201.56;;;-0.24;83.57
45327;BME280;31062;49.678;24.560;2024-01-30T10:37:09;100195.50;;;-0.19;83.93
45327;BME280;31062;49.678;24.560;2024-01-30T10:40:21;100183.66;;;-0.16;83.32
45327;BME280;31062;49.678;24.560;2024-01-30T10:43:08;100182.31;;;-0.12;83.87
45327;BME280;31062;49.678;24.560;2024-01-30T10:46:02;100175.78;;;-0.05;83.20
45327;BME280;31062;49.678;24.560;2024-01-30T10:49:12;100166.25;;;-0.01;83.59
45327;BME280;31062;49.678;24.560;2024-01-30T10:51:59;100158.22;;;0.05;84.09
45327;BME280;31062;49.678;24.560;2024-01-30T10:55:04;100156.38;;;0.11;82.94
45327;BME280;31062;49.678;24.560;2024-01-30T10:57:53;100154.69;;;0.14;83.27
45327;BME280;31062;49.678;24.560;2024-01-30T11:00:58;100149.84;;;0.18;83.03
45327;BME280;31062;49.678;24.560;2024-01-30T11:04:05;100147.72;;;0.22;82.44
45327;BME280;31062;49.678;24.560;2024-01-30T11:07:17;100150.28;;;0.25;83.23
45327;BME280;31062;49.678;24.560;2024-01-30T11:10:24;100136.75;;;0.31;83.07
45327;BME280;31062;49.678;24.560;2024-01-30T11:13:12;100134.16;;;0.36;83.56
45327;BME280;31062;49.678;24.560;2024-01-30T11:16:04;100136.88;;;0.46;84.00
45327;BME280;31062;49.678;24.560;2024-01-30T11:19:11;100138.66;;;0.58;83.66
45327;BME280;31062;49.678;24.560;2024-01-30T11:22:20;100110.59;;;0.57;83.50
45327;BME280;31062;49.678;24.560;2024-01-30T11:25:06;100132.16;;;0.79;83.39
45327;BME280;31062;49.678;24.560;2024-01-30T11:28:15;100129.41;;;0.88;83.24
45327;BME280;31062;49.678;24.560;2024-01-30T11:31:21;100125.09;;;0.96;82.21
45327;BME280;31062;49.678;24.560;2024-01-30T11:34:07;100121.75;;;1.01;82.09
45327;BME280;31062;49.678;24.560;2024-01-30T11:37:03;100118.94;;;1.10;82.32
45327;BME280;31062;49.678;24.560;2024-01-30T11:40:11;100114.78;;;1.15;82.13
45327;BME280;31062;49.678;24.560;2024-01-30T11:43:17;100100.69;;;1.16;81.96
45327;BME280;31062;49.678;24.560;2024-01-30T11:46:25;100098.72;;;1.32;82.12
45327;BME280;31062;49.678;24.560;2024-01-30T11:49:12;100105.34;;;1.40;82.17
45327;BME280;31062;49.678;24.560;2024-01-30T11:52:17;100104.53;;;1.48;81.42
45327;BME280;31062;49.678;24.560;2024-01-30T11:55:04;100080.41;;;1.47;81.12
45327;BME280;31062;49.678;24.560;2024-01-30T11:57:51;100016.44;;;1.00;81.38
45327;BME280;31062;49.678;24.560;2024-01-30T12:00:36;100100.59;;;1.64;81.06
45327;BME280;31062;49.678;24.560;2024-01-30T12:03:42;100096.28;;;1.72;81.48
45327;BME280;31062;49.678;24.560;2024-01-30T12:06:51;100090.69;;;1.81;81.14
45327;BME280;31062;49.678;24.560;2024-01-30T12:09:57;100087.59;;;1.88;80.60
45327;BME280;31062;49.678;24.560;2024-01-30T12:12:49;100083.25;;;1.96;80.23
45327;BME280;31062;49.678;24.560;2024-01-30T12:15:35;100075.91;;;2.02;80.02
45327;BME280;31062;49.678;24.560;2024-01-30T12:18:21;100072.50;;;2.08;79.79
45327;BME280;31062;49.678;24.560;2024-01-30T12:21:07;100071.81;;;2.13;79.83
45327;BME280;31062;49.678;24.560;2024-01-30T12:23:54;100069.34;;;2.15;79.14
45327;BME280;31062;49.678;24.560;2024-01-30T12:26:39;100075.97;;;2.23;79.14
45327;BME280;31062;49.678;24.560;2024-01-30T12:29:25;100068.28;;;2.27;79.22
45327;BME280;31062;49.678;24.560;2024-01-30T12:32:34;100064.91;;;2.32;78.71
45327;BME280;31062;49.678;24.560;2024-01-30T12:35:20;100060.00;;;2.36;78.13
45327;BME280;31062;49.678;24.560;2024-01-30T12:38:07;100066.00;;;2.40;78.12
45327;BME280;31062;49.678;24.560;2024-01-30T12:40:54;100068.06;;;2.45;77.90
45327;BME280;31062;49.678;24.560;2024-01-30T12:43:41;100071.38;;;2.49;77.61
45327;BME280;31062;49.678;24.560;2024-01-30T12:46:30;100064.41;;;2.48;77.36
45327;BME280;31062;49.678;24.560;2024-01-30T12:49:16;100069.75;;;2.57;77.44
45327;BME280;31062;49.678;24.560;2024-01-30T12:52:22;100007.53;;;2.23;76.78
45327;BME280;31062;49.678;24.560;2024-01-30T12:55:08;100053.72;;;2.50;77.07
45327;BME280;31062;49.678;24.560;2024-01-30T12:58:14;100065.38;;;2.65;76.27
45327;BME280;31062;49.678;24.560;2024-01-30T13:01:19;100060.25;;;2.73;76.73
45327;BME280;31062;49.678;24.560;2024-01-30T13:04:25;100064.75;;;2.76;76.74
45327;BME280;31062;49.678;24.560;2024-01-30T13:07:34;100052.38;;;2.80;76.06
45327;BME280;31062;49.678;24.560;2024-01-30T13:10:22;100057.91;;;2.86;75.80
45327;BME280;31062;49.678;24.560;2024-01-30T13:13:07;100058.00;;;2.92;75.94
45327;BME280;31062;49.678;24.560;2024-01-30T13:16:13;100052.59;;;2.97;75.36
45327;BME280;31062;49.678;24.560;2024-01-30T13:18:59;100061.34;;;3.01;75.23
45327;BME280;31062;49.678;24.560;2024-01-30T13:22:05;100054.19;;;3.04;74.99
45327;BME280;31062;49.678;24.560;2024-01-30T13:25:07;100044.97;;;3.07;74.71
45327;BME280;31062;49.678;24.560;2024-01-30T13:27:54;100045.25;;;3.09;74.66
45327;BME280;31062;49.678;24.560;2024-01-30T13:30:40;100040.31;;;3.13;74.72
45327;BME280;31062;49.678;24.560;2024-01-30T13:33:45;100031.88;;;3.16;74.24
45327;BME280;31062;49.678;24.560;2024-01-30T13:36:53;100019.63;;;3.12;74.14
45327;BME280;31062;49.678;24.560;2024-01-30T13:39:39;100020.66;;;3.14;73.95
45327;BME280;31062;49.678;24.560;2024-01-30T13:42:25;100034.69;;;3.22;73.29
45327;BME280;31062;49.678;24.560;2024-01-30T13:45:30;100036.19;;;3.23;73.26
45327;BME280;31062;49.678;24.560;2024-01-30T13:48:36;100032.03;;;3.27;73.14
45327;BME280;31062;49.678;24.560;2024-01-30T13:51:22;100030.28;;;3.30;72.94
45327;BME280;31062;49.678;24.560;2024-01-30T13:54:08;100030.56;;;3.32;73.08
45327;BME280;31062;49.678;24.560;2024-01-30T13:57:13;100028.06;;;3.34;72.87
45327;BME280;31062;49.678;24.560;2024-01-30T14:00:19;100023.84;;;3.33;72.57
45327;BME280;31062;49.678;24.560;2024-01-30T14:03:07;100024.38;;;3.37;72.32
45327;BME280;31062;49.678;24.560;2024-01-30T14:06:13;100015.88;;;3.35;72.40
45327;BME280;31062;49.678;24.560;2024-01-30T14:09:19;99895.84;;;2.41;72.20
45327;BME280;31062;49.678;24.560;2024-01-30T14:12:25;100026.13;;;3.40;72.29
45327;BME280;31062;49.678;24.560;2024-01-30T14:15:30;100020.94;;;3.42;72.23
45327;BME280;31062;49.678;24.560;2024-01-30T14:18:36;100022.44;;;3.43;72.28
45327;BME280;31062;49.678;24.560;2024-01-30T14:21:22;100021.22;;;3.44;72.39
45327;BME280;31062;49.678;24.560;2024-01-30T14:24:09;100018.47;;;3.44;72.14
45327;BME280;31062;49.678;24.560;2024-01-30T14:26:56;100016.97;;;3.43;71.95
45327;BME280;31062;49.678;24.560;2024-01-30T14:29:42;99992.88;;;3.27;71.79
45327;BME280;31062;49.678;24.560;2024-01-30T14:32:29;100009.16;;;3.36;72.33
45327;BME280;31062;49.678;24.560;2024-01-30T14:35:15;100009.63;;;3.35;72.23
45327;BME280;31062;49.678;24.560;2024-01-30T14:38:01;100006.66;;;3.33;72.34
45327;BME280;31062;49.678;24.560;2024-01-30T14:40:47;100013.63;;;3.34;72.20
45327;BME280;31062;49.678;24.560;2024-01-30T14:43:53;100007.59;;;3.29;72.33
45327;BME280;31062;49.678;24.560;2024-01-30T14:46:59;100009.59;;;3.29;72.26
45327;BME280;31062;49.678;24.560;2024-01-30T14:49:45;100010.09;;;3.27;71.98
45327;BME280;31062;49.678;24.560;2024-01-30T14:52:31;100002.06;;;3.24;72.06
45327;BME280;31062;49.678;24.560;2024-01-30T14:55:17;100003.03;;;3.21;72.07
45327;BME280;31062;49.678;24.560;2024-01-30T14:58:03;100005.97;;;3.17;72.21
45327;BME280;31062;49.678;24.560;2024-01-30T15:00:49;100003.47;;;3.14;72.10